createdAt,value
2023-02-23T12:34:40.080Z,10.10
2023-02-23T12:37:28.329Z,11.40
2023-02-23T12:40:05.755Z,14.30
2023-02-23T12:42:46.080Z,10.00
2023-02-23T12:45:24.782Z,13.90
2023-02-23T12:48:29.979Z,9.80
2023-02-23T12:51:02.925Z,11.30
2023-02-23T12:53:42.562Z,10.00
2023-02-23T12:56:19.787Z,9.60
2023-02-23T12:59:28.450Z,11.50
2023-02-23T13:02:08.683Z,11.80
2023-02-23T13:04:48.076Z,9.30
2023-02-23T13:09:18.695Z,9.00
2023-02-23T13:12:07.890Z,9.90
2023-02-23T13:14:46.497Z,9.80
2023-02-23T13:17:39.944Z,9.50
2023-02-23T13:20:22.998Z,8.40
2023-02-23T13:23:11.577Z,10.20
2023-02-23T13:26:06.221Z,8.60
2023-02-23T13:28:51.189Z,11.10
2023-02-23T13:31:40.432Z,10.60
2023-02-23T13:34:14.265Z,8.20
2023-02-23T13:36:43.133Z,9.80
2023-02-23T13:39:53.260Z,9.60
2023-02-23T13:42:33.366Z,8.40
2023-02-23T13:45:21.995Z,9.70
2023-02-23T13:48:15.418Z,7.70
2023-02-23T13:50:47.613Z,10.70
2023-02-23T13:53:37.490Z,8.90
2023-02-23T13:56:18.463Z,9.20
2023-02-23T13:59:09.714Z,10.40
2023-02-23T14:01:49.088Z,7.30
2023-02-23T14:04:28.043Z,11.50
2023-02-23T14:07:31.012Z,12.00
2023-02-23T14:10:01.303Z,9.20
2023-02-23T14:12:40.077Z,8.90
2023-02-23T14:15:38.778Z,10.80
2023-02-23T14:18:19.565Z,7.10
2023-02-23T14:21:10.906Z,10.40
2023-02-23T14:24:03.401Z,8.80
2023-02-23T14:26:38.038Z,8.00
2023-02-23T14:29:32.111Z,8.70
2023-02-23T14:32:03.859Z,9.00
2023-02-23T14:34:52.264Z,6.90
2023-02-23T14:37:41.266Z,8.70
2023-02-23T14:40:22.761Z,8.10
2023-02-23T14:42:53.905Z,10.10
2023-02-23T14:45:34.322Z,8.00
2023-02-23T14:48:10.158Z,9.60
2023-02-23T14:50:39.368Z,9.80
2023-02-23T14:53:21.657Z,7.50
2023-02-23T14:55:50.350Z,9.30
2023-02-23T14:58:37.513Z,8.00
2023-02-23T15:01:09.096Z,11.50
2023-02-23T15:03:40.500Z,9.90
2023-02-23T15:06:10.246Z,9.70
2023-02-23T15:08:41.260Z,11.30
2023-02-23T15:11:13.896Z,12.10
2023-02-23T15:13:50.065Z,10.10
2023-02-23T15:16:32.337Z,9.10
2023-02-23T15:19:01.794Z,13.40
2023-02-23T15:21:35.998Z,8.70
2023-02-23T15:24:11.345Z,9.80
2023-02-23T15:26:41.109Z,8.30
2023-02-23T15:29:20.677Z,9.40
2023-02-23T15:31:52.844Z,9.80
2023-02-23T15:34:25.186Z,7.50
2023-02-23T15:37:03.558Z,10.40
2023-02-23T15:39:40.177Z,9.00
2023-02-23T15:42:10.778Z,9.60
2023-02-23T15:44:44.916Z,12.10
2023-02-23T15:47:22.205Z,11.30
2023-02-23T15:49:51.217Z,12.10
2023-02-23T15:52:26.580Z,10.50
2023-02-23T15:55:00.770Z,12.80
2023-02-23T15:57:43.982Z,12.40
2023-02-23T16:00:33.110Z,13.20
2023-02-23T16:03:03.906Z,10.40
2023-02-23T16:05:46.466Z,14.70
2023-02-23T16:08:23.212Z,11.80
2023-02-23T16:11:03.320Z,13.00
2023-02-23T16:13:34.647Z,18.00
2023-02-23T16:16:08.910Z,15.10
2023-02-23T16:18:41.562Z,13.60
2023-02-23T16:21:17.180Z,15.60
2023-02-23T16:23:48.043Z,15.10
2023-02-23T16:26:29.069Z,15.80
2023-02-23T16:28:59.913Z,15.40
2023-02-23T16:31:45.383Z,18.00
2023-02-23T16:34:36.914Z,12.70
2023-02-23T16:37:15.908Z,12.60
2023-02-23T16:39:44.349Z,13.90
2023-02-23T16:42:25.494Z,19.50
2023-02-23T16:44:53.922Z,20.80
2023-02-23T16:47:22.473Z,15.30
2023-02-23T16:49:51.290Z,17.10
2023-02-23T16:52:22.522Z,16.40
2023-02-23T16:54:55.325Z,14.80
2023-02-23T16:57:25.386Z,17.40
2023-02-23T16:59:53.618Z,13.80
2023-02-23T17:02:23.444Z,15.50
2023-02-23T17:04:52.200Z,15.90
2023-02-23T17:07:22.806Z,13.10
2023-02-23T17:09:52.218Z,14.70
2023-02-23T17:12:23.018Z,13.70
2023-02-23T17:14:51.906Z,17.40
2023-02-23T17:17:20.280Z,15.60
2023-02-23T17:19:48.438Z,16.30
2023-02-23T17:22:16.582Z,20.20
2023-02-23T17:24:47.568Z,15.30
2023-02-23T17:27:15.926Z,18.10
2023-02-23T17:29:45.759Z,18.80
2023-02-23T17:32:14.359Z,14.90
2023-02-23T17:34:45.786Z,16.40
2023-02-23T17:37:14.461Z,15.50
2023-02-23T17:39:42.652Z,15.30
2023-02-23T17:42:10.846Z,14.50
2023-02-23T17:44:39.145Z,13.90
2023-02-23T17:47:07.879Z,14.20
2023-02-23T17:49:36.142Z,10.80
2023-02-23T17:52:04.537Z,13.50
2023-02-23T17:54:33.045Z,12.70
2023-02-23T17:57:02.203Z,11.90
2023-02-23T17:59:30.413Z,11.60
2023-02-23T18:01:59.595Z,11.50
2023-02-23T18:04:28.127Z,20.00
2023-02-23T18:06:57.898Z,12.50
2023-02-23T18:09:27.439Z,14.90
2023-02-23T18:12:00.384Z,12.80
2023-02-23T18:14:29.743Z,14.30
2023-02-23T18:16:58.064Z,13.70
2023-02-23T18:19:26.319Z,15.70
2023-02-23T18:21:56.385Z,15.40
2023-02-23T18:24:25.553Z,14.40
2023-02-23T18:27:00.794Z,14.60
2023-02-23T18:29:30.602Z,14.30
2023-02-23T18:32:00.281Z,15.90
2023-02-23T18:34:29.307Z,13.80
2023-02-23T18:37:02.543Z,15.90
2023-02-23T18:39:31.828Z,13.20
2023-02-23T18:42:00.671Z,15.00
2023-02-23T18:44:29.421Z,16.60
2023-02-23T18:46:57.996Z,15.70
2023-02-23T18:49:26.600Z,16.30
2023-02-23T18:51:56.184Z,14.10
2023-02-23T18:54:26.376Z,16.40
2023-02-23T18:56:55.943Z,11.80
2023-02-23T18:59:24.665Z,16.50
2023-02-23T19:01:52.925Z,19.40
2023-02-23T19:04:21.307Z,15.10
2023-02-23T19:06:50.182Z,15.90
2023-02-23T19:09:19.814Z,13.70
2023-02-23T19:11:50.932Z,13.20
2023-02-23T19:14:22.041Z,14.10
2023-02-23T19:16:52.451Z,13.70
2023-02-23T19:19:21.015Z,12.50
2023-02-23T19:21:53.363Z,14.00
2023-02-23T19:24:21.781Z,11.50
2023-02-23T19:26:50.251Z,15.80
2023-02-23T19:29:18.897Z,12.50
2023-02-23T19:31:47.809Z,9.90
2023-02-23T19:34:16.804Z,10.40
2023-02-23T19:36:47.427Z,11.30
2023-02-23T19:39:16.490Z,9.60
2023-02-23T19:41:47.240Z,10.60
2023-02-23T19:44:17.618Z,13.40
2023-02-23T19:46:45.916Z,11.90
2023-02-23T19:49:14.269Z,11.70
2023-02-23T19:51:44.348Z,11.60
2023-02-23T19:54:12.627Z,11.40
2023-02-23T19:56:41.146Z,11.90
2023-02-23T19:59:10.603Z,17.10
2023-02-23T20:01:39.139Z,11.30
2023-02-23T20:04:09.804Z,10.10
2023-02-23T20:06:47.345Z,11.50
2023-02-23T20:09:15.746Z,11.60
2023-02-23T20:11:49.496Z,12.40
2023-02-23T20:14:17.913Z,13.50
2023-02-23T20:16:46.380Z,11.50
2023-02-23T20:19:14.717Z,13.70
2023-02-23T20:21:43.840Z,11.90
2023-02-23T20:24:13.163Z,10.90
2023-02-23T20:26:42.838Z,11.70
2023-02-23T20:29:17.229Z,9.80
2023-02-23T20:31:51.018Z,10.50
2023-02-23T20:34:22.898Z,10.20
2023-02-23T20:36:54.080Z,12.00
2023-02-23T20:39:27.122Z,12.30
2023-02-23T20:41:56.833Z,12.80
2023-02-23T20:44:25.333Z,10.10
2023-02-23T20:46:53.962Z,11.40
2023-02-23T20:49:23.142Z,12.70
2023-02-23T20:51:52.118Z,10.40
2023-02-23T20:54:21.150Z,10.80
2023-02-23T20:56:59.133Z,9.10
2023-02-23T20:59:31.039Z,11.00
2023-02-23T21:02:02.400Z,9.90
2023-02-23T21:04:30.898Z,11.50
2023-02-23T21:06:59.846Z,9.60
2023-02-23T21:09:28.190Z,12.10
2023-02-23T21:11:56.777Z,12.20
2023-02-23T21:14:27.361Z,11.00
2023-02-23T21:16:55.479Z,9.20
2023-02-23T21:19:24.566Z,11.90
2023-02-23T21:21:58.366Z,9.40
2023-02-23T21:24:26.875Z,12.10
2023-02-23T21:26:55.078Z,10.60
2023-02-23T21:29:24.511Z,10.80
2023-02-23T21:31:53.054Z,11.00
2023-02-23T21:34:21.692Z,11.40
2023-02-23T21:36:51.609Z,11.30
2023-02-23T21:39:21.851Z,10.60
2023-02-23T21:41:50.254Z,11.20
2023-02-23T21:44:18.593Z,12.20
2023-02-23T21:46:48.224Z,12.20
2023-02-23T21:49:16.766Z,11.30
2023-02-23T21:51:45.087Z,11.60
2023-02-23T21:54:13.324Z,9.60
2023-02-23T21:56:41.548Z,12.10
2023-02-23T21:59:10.794Z,10.00
2023-02-23T22:01:39.509Z,9.60
2023-02-23T22:04:08.588Z,10.10
2023-02-23T22:06:40.087Z,10.50
2023-02-23T22:09:11.826Z,9.50
2023-02-23T22:11:46.886Z,10.70
2023-02-23T22:14:17.109Z,9.00
2023-02-23T22:16:46.061Z,11.70
2023-02-23T22:19:14.875Z,12.50
2023-02-23T22:21:43.307Z,13.50
2023-02-23T22:24:12.721Z,12.20
2023-02-23T22:26:42.551Z,11.60
2023-02-23T22:29:11.380Z,9.50
2023-02-23T22:31:42.332Z,9.90
2023-02-23T22:34:10.727Z,10.30
2023-02-23T22:36:38.963Z,11.20
2023-02-23T22:39:09.740Z,9.90
2023-02-23T22:41:43.941Z,10.10
2023-02-23T22:44:13.292Z,10.00
2023-02-23T22:46:41.834Z,9.70
2023-02-23T22:49:14.865Z,11.20
2023-02-23T22:51:43.859Z,9.60
2023-02-23T22:54:13.497Z,9.50
2023-02-23T22:56:42.567Z,10.90
2023-02-23T22:59:10.931Z,11.60
2023-02-23T23:01:39.252Z,11.50
2023-02-23T23:04:10.915Z,10.30
2023-02-23T23:06:40.926Z,8.30
2023-02-23T23:09:11.879Z,9.10
2023-02-23T23:11:41.896Z,9.50
2023-02-23T23:14:19.391Z,12.80
2023-02-23T23:16:48.264Z,9.90
2023-02-23T23:19:24.500Z,11.70
2023-02-23T23:21:57.394Z,11.70
2023-02-23T23:24:27.749Z,11.50
2023-02-23T23:26:56.213Z,13.20
2023-02-23T23:29:25.811Z,12.30
2023-02-23T23:31:57.530Z,11.90
2023-02-23T23:34:25.934Z,10.20
2023-02-23T23:36:57.935Z,11.10
2023-02-23T23:39:26.408Z,9.00
2023-02-23T23:41:54.778Z,10.10
2023-02-23T23:44:24.095Z,9.30
2023-02-23T23:46:53.117Z,12.10
2023-02-23T23:49:25.931Z,13.70
2023-02-23T23:51:58.291Z,9.80
2023-02-23T23:54:31.995Z,10.90
2023-02-23T23:57:07.102Z,13.40
2023-02-23T23:59:35.571Z,11.30
